Terminal Aerodrome Forecast
Issued by NWS Flagstaff, AZ

Home | Current Version | Previous Version | Text Only | Print | Product List | Glossary On
Versions: 1 2 3 4 5 6 7 8 9 10 11 12 13 14 15
841
FTUS45 KFGZ 071729
TAFFLG
TAF
KFLG 071729Z 0718/0818 07010G20KT P6SM SKC
     FM080100 07010KT P6SM SKC
     FM081630 07014G22KT P6SM SKC=

USA.gov is the U.S. government's official web portal to all federal, state and local government web resources and services.